sensor_id;sensor_type;location;lat;lon;timestamp;P1;durP1;ratioP1;P2;durP2;ratioP2
8337;SDS011;4206;48.634;9.516;2023-03-16T00:02:04;9.20;;;4.33;;
8337;SDS011;4206;48.634;9.516;2023-03-16T00:04:32;24.30;;;9.03;;
8337;SDS011;4206;48.634;9.516;2023-03-16T00:07:03;29.80;;;11.17;;
8337;SDS011;4206;48.634;9.516;2023-03-16T00:09:32;32.37;;;12.50;;
8337;SDS011;4206;48.634;9.516;2023-03-16T00:12:01;23.53;;;9.67;;
8337;SDS011;4206;48.634;9.516;2023-03-16T00:14:29;22.60;;;10.47;;
8337;SDS011;4206;48.634;9.516;2023-03-16T00:16:56;22.37;;;9.10;;
8337;SDS011;4206;48.634;9.516;2023-03-16T00:19:23;18.83;;;7.60;;
8337;SDS011;4206;48.634;9.516;2023-03-16T00:21:50;32.43;;;14.00;;
8337;SDS011;4206;48.634;9.516;2023-03-16T00:24:17;39.83;;;17.93;;
8337;SDS011;4206;48.634;9.516;2023-03-16T00:26:46;24.63;;;11.73;;
8337;SDS011;4206;48.634;9.516;2023-03-16T00:29:13;20.07;;;10.20;;
8337;SDS011;4206;48.634;9.516;2023-03-16T00:31:40;19.17;;;10.90;;
8337;SDS011;4206;48.634;9.516;2023-03-16T00:34:09;10.40;;;6.47;;
8337;SDS011;4206;48.634;9.516;2023-03-16T00:36:36;6.00;;;4.57;;
8337;SDS011;4206;48.634;9.516;2023-03-16T00:39:04;7.30;;;4.43;;
8337;SDS011;4206;48.634;9.516;2023-03-16T00:41:32;10.57;;;4.63;;
8337;SDS011;4206;48.634;9.516;2023-03-16T00:44:04;79.60;;;21.53;;
8337;SDS011;4206;48.634;9.516;2023-03-16T00:46:37;65.73;;;17.10;;
8337;SDS011;4206;48.634;9.516;2023-03-16T00:49:08;39.27;;;12.53;;
8337;SDS011;4206;48.634;9.516;2023-03-16T00:51:40;31.70;;;11.30;;
8337;SDS011;4206;48.634;9.516;2023-03-16T00:54:13;25.20;;;8.90;;
8337;SDS011;4206;48.634;9.516;2023-03-16T00:56:46;23.93;;;11.30;;
8337;SDS011;4206;48.634;9.516;2023-03-16T00:59:17;27.93;;;12.20;;
8337;SDS011;4206;48.634;9.516;2023-03-16T01:01:49;14.83;;;7.20;;
8337;SDS011;4206;48.634;9.516;2023-03-16T01:04:20;7.47;;;4.67;;
8337;SDS011;4206;48.634;9.516;2023-03-16T01:06:51;10.17;;;4.70;;
8337;SDS011;4206;48.634;9.516;2023-03-16T01:09:22;9.47;;;5.47;;
8337;SDS011;4206;48.634;9.516;2023-03-16T01:11:54;14.00;;;6.30;;
8337;SDS011;4206;48.634;9.516;2023-03-16T01:14:26;10.60;;;5.70;;
8337;SDS011;4206;48.634;9.516;2023-03-16T01:16:58;13.30;;;7.50;;
8337;SDS011;4206;48.634;9.516;2023-03-16T01:19:30;14.47;;;8.07;;
8337;SDS011;4206;48.634;9.516;2023-03-16T01:22:04;15.53;;;8.20;;
8337;SDS011;4206;48.634;9.516;2023-03-16T01:24:38;17.30;;;7.90;;
8337;SDS011;4206;48.634;9.516;2023-03-16T01:27:10;11.13;;;6.53;;
8337;SDS011;4206;48.634;9.516;2023-03-16T01:29:43;9.77;;;5.90;;
8337;SDS011;4206;48.634;9.516;2023-03-16T01:32:14;10.20;;;6.50;;
8337;SDS011;4206;48.634;9.516;2023-03-16T01:34:45;12.90;;;6.00;;
8337;SDS011;4206;48.634;9.516;2023-03-16T01:37:16;12.10;;;6.87;;
8337;SDS011;4206;48.634;9.516;2023-03-16T01:39:48;7.47;;;5.20;;
8337;SDS011;4206;48.634;9.516;2023-03-16T01:42:18;9.53;;;6.13;;
8337;SDS011;4206;48.634;9.516;2023-03-16T01:44:50;11.97;;;5.67;;
8337;SDS011;4206;48.634;9.516;2023-03-16T01:47:20;8.30;;;4.90;;
8337;SDS011;4206;48.634;9.516;2023-03-16T01:49:49;9.37;;;5.50;;
8337;SDS011;4206;48.634;9.516;2023-03-16T01:52:21;7.30;;;4.90;;
8337;SDS011;4206;48.634;9.516;2023-03-16T01:54:54;8.30;;;4.97;;
8337;SDS011;4206;48.634;9.516;2023-03-16T01:57:26;8.80;;;5.77;;
8337;SDS011;4206;48.634;9.516;2023-03-16T01:59:59;11.47;;;6.67;;
8337;SDS011;4206;48.634;9.516;2023-03-16T02:02:37;9.10;;;5.67;;
8337;SDS011;4206;48.634;9.516;2023-03-16T02:05:13;9.90;;;7.00;;
8337;SDS011;4206;48.634;9.516;2023-03-16T02:07:46;9.10;;;5.37;;
8337;SDS011;4206;48.634;9.516;2023-03-16T02:10:16;9.87;;;6.00;;
8337;SDS011;4206;48.634;9.516;2023-03-16T02:12:44;13.07;;;7.40;;
8337;SDS011;4206;48.634;9.516;2023-03-16T02:15:12;11.13;;;7.47;;
8337;SDS011;4206;48.634;9.516;2023-03-16T02:17:40;10.40;;;6.40;;
8337;SDS011;4206;48.634;9.516;2023-03-16T02:23:08;12.03;;;6.60;;
8337;SDS011;4206;48.634;9.516;2023-03-16T02:25:46;12.60;;;7.80;;
8337;SDS011;4206;48.634;9.516;2023-03-16T02:28:27;14.43;;;8.57;;
8337;SDS011;4206;48.634;9.516;2023-03-16T02:30:56;15.00;;;9.07;;
8337;SDS011;4206;48.634;9.516;2023-03-16T02:33:23;15.70;;;9.30;;
8337;SDS011;4206;48.634;9.516;2023-03-16T02:35:51;17.60;;;10.63;;
8337;SDS011;4206;48.634;9.516;2023-03-16T02:38:18;19.03;;;11.50;;
8337;SDS011;4206;48.634;9.516;2023-03-16T02:40:45;18.70;;;10.83;;
8337;SDS011;4206;48.634;9.516;2023-03-16T02:43:24;19.83;;;10.53;;
8337;SDS011;4206;48.634;9.516;2023-03-16T02:45:58;16.67;;;10.33;;
8337;SDS011;4206;48.634;9.516;2023-03-16T02:51:05;21.40;;;11.50;;
8337;SDS011;4206;48.634;9.516;2023-03-16T02:53:32;20.40;;;10.23;;
8337;SDS011;4206;48.634;9.516;2023-03-16T02:55:59;18.60;;;10.77;;
8337;SDS011;4206;48.634;9.516;2023-03-16T02:58:28;18.53;;;10.23;;
8337;SDS011;4206;48.634;9.516;2023-03-16T03:00:55;16.60;;;9.83;;
8337;SDS011;4206;48.634;9.516;2023-03-16T03:03:22;16.10;;;9.87;;
8337;SDS011;4206;48.634;9.516;2023-03-16T03:05:49;21.37;;;11.90;;
8337;SDS011;4206;48.634;9.516;2023-03-16T03:08:16;19.20;;;12.00;;
8337;SDS011;4206;48.634;9.516;2023-03-16T03:10:45;20.70;;;12.07;;
8337;SDS011;4206;48.634;9.516;2023-03-16T03:13:12;19.83;;;11.20;;
8337;SDS011;4206;48.634;9.516;2023-03-16T03:15:39;12.67;;;9.10;;
8337;SDS011;4206;48.634;9.516;2023-03-16T03:18:06;11.70;;;8.20;;
8337;SDS011;4206;48.634;9.516;2023-03-16T03:20:32;16.53;;;8.10;;
8337;SDS011;4206;48.634;9.516;2023-03-16T03:22:59;13.83;;;8.27;;
8337;SDS011;4206;48.634;9.516;2023-03-16T03:25:28;14.43;;;8.60;;
8337;SDS011;4206;48.634;9.516;2023-03-16T03:27:55;13.60;;;8.63;;
8337;SDS011;4206;48.634;9.516;2023-03-16T03:30:22;17.60;;;9.90;;
8337;SDS011;4206;48.634;9.516;2023-03-16T03:32:50;16.60;;;9.10;;
8337;SDS011;4206;48.634;9.516;2023-03-16T03:35:17;16.80;;;10.07;;
8337;SDS011;4206;48.634;9.516;2023-03-16T03:37:46;18.00;;;10.33;;
8337;SDS011;4206;48.634;9.516;2023-03-16T03:40:13;16.57;;;10.03;;
8337;SDS011;4206;48.634;9.516;2023-03-16T03:42:42;18.90;;;10.60;;
8337;SDS011;4206;48.634;9.516;2023-03-16T03:45:09;14.50;;;9.10;;
8337;SDS011;4206;48.634;9.516;2023-03-16T03:47:38;15.13;;;9.73;;
8337;SDS011;4206;48.634;9.516;2023-03-16T03:50:07;16.00;;;10.40;;
8337;SDS011;4206;48.634;9.516;2023-03-16T03:52:35;22.10;;;10.50;;
8337;SDS011;4206;48.634;9.516;2023-03-16T03:55:02;21.47;;;10.20;;
8337;SDS011;4206;48.634;9.516;2023-03-16T03:57:29;13.80;;;9.03;;
8337;SDS011;4206;48.634;9.516;2023-03-16T03:59:56;17.57;;;10.17;;
8337;SDS011;4206;48.634;9.516;2023-03-16T05:00:38;23.97;;;11.80;;
8337;SDS011;4206;48.634;9.516;2023-03-16T05:03:07;17.00;;;9.97;;
8337;SDS011;4206;48.634;9.516;2023-03-16T05:05:36;18.50;;;10.57;;
8337;SDS011;4206;48.634;9.516;2023-03-16T05:08:04;15.10;;;9.27;;
8337;SDS011;4206;48.634;9.516;2023-03-16T05:10:32;22.40;;;10.40;;
8337;SDS011;4206;48.634;9.516;2023-03-16T05:12:59;20.87;;;10.80;;
8337;SDS011;4206;48.634;9.516;2023-03-16T05:15:26;19.33;;;10.50;;
8337;SDS011;4206;48.634;9.516;2023-03-16T05:17:53;25.70;;;11.10;;
8337;SDS011;4206;48.634;9.516;2023-03-16T05:20:22;18.03;;;11.27;;
8337;SDS011;4206;48.634;9.516;2023-03-16T05:22:49;18.60;;;10.93;;
8337;SDS011;4206;48.634;9.516;2023-03-16T05:25:16;20.43;;;11.33;;
8337;SDS011;4206;48.634;9.516;2023-03-16T05:27:45;19.20;;;11.53;;
8337;SDS011;4206;48.634;9.516;2023-03-16T05:30:14;20.60;;;10.53;;
8337;SDS011;4206;48.634;9.516;2023-03-16T05:32:41;13.67;;;9.07;;
8337;SDS011;4206;48.634;9.516;2023-03-16T05:35:08;17.50;;;10.67;;
8337;SDS011;4206;48.634;9.516;2023-03-16T05:37:40;17.20;;;9.10;;
8337;SDS011;4206;48.634;9.516;2023-03-16T05:40:09;17.30;;;10.50;;
8337;SDS011;4206;48.634;9.516;2023-03-16T05:42:43;11.40;;;7.03;;
8337;SDS011;4206;48.634;9.516;2023-03-16T05:45:12;12.60;;;8.47;;
8337;SDS011;4206;48.634;9.516;2023-03-16T05:47:41;14.63;;;7.90;;
8337;SDS011;4206;48.634;9.516;2023-03-16T05:50:09;14.00;;;8.37;;
8337;SDS011;4206;48.634;9.516;2023-03-16T05:52:38;13.60;;;8.17;;
8337;SDS011;4206;48.634;9.516;2023-03-16T05:55:06;18.23;;;8.13;;
8337;SDS011;4206;48.634;9.516;2023-03-16T05:57:34;14.13;;;8.27;;
8337;SDS011;4206;48.634;9.516;2023-03-16T06:00:03;12.93;;;7.57;;
8337;SDS011;4206;48.634;9.516;2023-03-16T06:02:38;12.50;;;7.67;;
8337;SDS011;4206;48.634;9.516;2023-03-16T06:05:05;12.67;;;6.57;;
8337;SDS011;4206;48.634;9.516;2023-03-16T06:07:33;12.17;;;6.87;;
8337;SDS011;4206;48.634;9.516;2023-03-16T06:10:00;12.17;;;7.20;;
8337;SDS011;4206;48.634;9.516;2023-03-16T06:12:28;8.30;;;5.73;;
8337;SDS011;4206;48.634;9.516;2023-03-16T06:14:54;9.00;;;5.47;;
8337;SDS011;4206;48.634;9.516;2023-03-16T06:17:21;8.53;;;5.30;;
8337;SDS011;4206;48.634;9.516;2023-03-16T06:19:48;9.43;;;5.77;;
8337;SDS011;4206;48.634;9.516;2023-03-16T06:22:16;11.10;;;6.63;;
8337;SDS011;4206;48.634;9.516;2023-03-16T06:24:43;8.97;;;5.07;;
8337;SDS011;4206;48.634;9.516;2023-03-16T06:27:10;10.20;;;6.27;;
8337;SDS011;4206;48.634;9.516;2023-03-16T06:29:37;13.27;;;6.40;;
8337;SDS011;4206;48.634;9.516;2023-03-16T06:32:04;8.53;;;5.80;;
8337;SDS011;4206;48.634;9.516;2023-03-16T06:34:31;7.77;;;5.50;;
8337;SDS011;4206;48.634;9.516;2023-03-16T06:37:01;8.93;;;5.00;;
8337;SDS011;4206;48.634;9.516;2023-03-16T06:39:29;8.03;;;5.60;;
8337;SDS011;4206;48.634;9.516;2023-03-16T06:41:56;9.37;;;5.17;;
8337;SDS011;4206;48.634;9.516;2023-03-16T06:44:23;8.70;;;4.63;;
8337;SDS011;4206;48.634;9.516;2023-03-16T06:46:50;6.97;;;4.27;;
8337;SDS011;4206;48.634;9.516;2023-03-16T06:49:17;4.53;;;4.00;;
8337;SDS011;4206;48.634;9.516;2023-03-16T06:51:44;9.37;;;4.60;;
8337;SDS011;4206;48.634;9.516;2023-03-16T06:54:11;5.63;;;4.37;;
8337;SDS011;4206;48.634;9.516;2023-03-16T06:56:38;7.10;;;4.53;;
8337;SDS011;4206;48.634;9.516;2023-03-16T06:59:05;6.23;;;4.47;;
8337;SDS011;4206;48.634;9.516;2023-03-16T07:01:32;5.70;;;4.20;;
8337;SDS011;4206;48.634;9.516;2023-03-16T07:03:59;6.37;;;4.50;;
8337;SDS011;4206;48.634;9.516;2023-03-16T07:06:27;7.70;;;5.23;;
8337;SDS011;4206;48.634;9.516;2023-03-16T07:08:53;8.30;;;5.00;;
8337;SDS011;4206;48.634;9.516;2023-03-16T07:11:20;9.80;;;5.10;;
8337;SDS011;4206;48.634;9.516;2023-03-16T07:13:48;6.07;;;4.47;;
8337;SDS011;4206;48.634;9.516;2023-03-16T07:16:15;7.57;;;5.57;;
8337;SDS011;4206;48.634;9.516;2023-03-16T07:18:43;9.20;;;5.43;;
8337;SDS011;4206;48.634;9.516;2023-03-16T07:21:10;7.40;;;4.93;;
8337;SDS011;4206;48.634;9.516;2023-03-16T07:23:37;9.50;;;4.90;;
8337;SDS011;4206;48.634;9.516;2023-03-16T07:26:04;6.90;;;5.27;;
8337;SDS011;4206;48.634;9.516;2023-03-16T07:28:33;9.73;;;5.53;;
8337;SDS011;4206;48.634;9.516;2023-03-16T07:31:00;8.60;;;5.30;;
8337;SDS011;4206;48.634;9.516;2023-03-16T07:33:31;9.77;;;5.13;;
8337;SDS011;4206;48.634;9.516;2023-03-16T07:35:58;9.63;;;5.70;;
8337;SDS011;4206;48.634;9.516;2023-03-16T07:38:26;6.30;;;4.70;;
8337;SDS011;4206;48.634;9.516;2023-03-16T07:40:52;7.10;;;5.10;;
8337;SDS011;4206;48.634;9.516;2023-03-16T07:43:19;6.43;;;4.90;;
8337;SDS011;4206;48.634;9.516;2023-03-16T07:45:47;6.70;;;4.23;;
8337;SDS011;4206;48.634;9.516;2023-03-16T07:48:15;6.07;;;4.63;;
8337;SDS011;4206;48.634;9.516;2023-03-16T07:50:43;7.63;;;4.47;;
8337;SDS011;4206;48.634;9.516;2023-03-16T07:53:09;9.70;;;4.07;;
8337;SDS011;4206;48.634;9.516;2023-03-16T07:55:36;8.40;;;3.90;;
8337;SDS011;4206;48.634;9.516;2023-03-16T07:58:04;5.93;;;4.23;;
8337;SDS011;4206;48.634;9.516;2023-03-16T08:00:32;5.87;;;3.73;;
8337;SDS011;4206;48.634;9.516;2023-03-16T08:02:59;5.30;;;4.00;;
8337;SDS011;4206;48.634;9.516;2023-03-16T08:05:27;5.37;;;4.00;;
8337;SDS011;4206;48.634;9.516;2023-03-16T08:07:54;6.17;;;4.57;;
8337;SDS011;4206;48.634;9.516;2023-03-16T08:10:22;6.47;;;3.53;;
8337;SDS011;4206;48.634;9.516;2023-03-16T08:12:50;5.07;;;4.00;;
8337;SDS011;4206;48.634;9.516;2023-03-16T08:15:17;13.57;;;3.63;;
8337;SDS011;4206;48.634;9.516;2023-03-16T08:17:44;6.10;;;4.03;;
8337;SDS011;4206;48.634;9.516;2023-03-16T08:20:12;6.00;;;4.23;;
8337;SDS011;4206;48.634;9.516;2023-03-16T08:22:41;6.47;;;4.10;;
8337;SDS011;4206;48.634;9.516;2023-03-16T08:25:11;7.20;;;4.07;;
8337;SDS011;4206;48.634;9.516;2023-03-16T08:27:39;6.43;;;4.10;;
8337;SDS011;4206;48.634;9.516;2023-03-16T08:30:09;3.83;;;2.97;;
8337;SDS011;4206;48.634;9.516;2023-03-16T08:32:37;4.23;;;3.60;;
8337;SDS011;4206;48.634;9.516;2023-03-16T08:35:07;4.77;;;3.43;;
8337;SDS011;4206;48.634;9.516;2023-03-16T08:37:35;5.50;;;3.50;;
8337;SDS011;4206;48.634;9.516;2023-03-16T08:40:02;4.47;;;3.07;;
8337;SDS011;4206;48.634;9.516;2023-03-16T08:42:35;6.30;;;3.10;;
8337;SDS011;4206;48.634;9.516;2023-03-16T08:45:04;3.93;;;3.03;;
8337;SDS011;4206;48.634;9.516;2023-03-16T08:47:38;4.77;;;2.87;;
8337;SDS011;4206;48.634;9.516;2023-03-16T08:50:06;5.00;;;2.67;;
8337;SDS011;4206;48.634;9.516;2023-03-16T08:52:33;3.87;;;3.00;;
8337;SDS011;4206;48.634;9.516;2023-03-16T08:55:02;3.20;;;2.60;;
8337;SDS011;4206;48.634;9.516;2023-03-16T08:57:31;3.43;;;2.60;;
8337;SDS011;4206;48.634;9.516;2023-03-16T08:59:59;4.60;;;3.10;;
8337;SDS011;4206;48.634;9.516;2023-03-16T09:02:26;4.30;;;2.60;;
8337;SDS011;4206;48.634;9.516;2023-03-16T09:04:53;3.73;;;2.30;;
8337;SDS011;4206;48.634;9.516;2023-03-16T09:07:21;5.03;;;2.37;;
8337;SDS011;4206;48.634;9.516;2023-03-16T09:09:48;2.67;;;2.20;;
8337;SDS011;4206;48.634;9.516;2023-03-16T09:12:16;3.80;;;2.63;;
8337;SDS011;4206;48.634;9.516;2023-03-16T09:14:42;4.63;;;2.83;;
8337;SDS011;4206;48.634;9.516;2023-03-16T09:17:11;5.73;;;2.70;;
8337;SDS011;4206;48.634;9.516;2023-03-16T09:19:38;7.20;;;4.13;;
8337;SDS011;4206;48.634;9.516;2023-03-16T09:22:18;3.20;;;2.83;;
8337;SDS011;4206;48.634;9.516;2023-03-16T09:24:46;5.77;;;3.47;;
8337;SDS011;4206;48.634;9.516;2023-03-16T09:27:13;3.20;;;2.00;;
8337;SDS011;4206;48.634;9.516;2023-03-16T09:29:42;4.73;;;2.87;;
8337;SDS011;4206;48.634;9.516;2023-03-16T09:32:10;3.10;;;2.60;;
8337;SDS011;4206;48.634;9.516;2023-03-16T09:34:38;3.60;;;2.13;;
8337;SDS011;4206;48.634;9.516;2023-03-16T09:37:05;3.30;;;2.03;;
8337;SDS011;4206;48.634;9.516;2023-03-16T09:39:32;3.03;;;1.80;;
8337;SDS011;4206;48.634;9.516;2023-03-16T09:47:22;4.60;;;1.80;;
8337;SDS011;4206;48.634;9.516;2023-03-16T09:49:52;4.70;;;2.70;;
8337;SDS011;4206;48.634;9.516;2023-03-16T09:57:53;2.07;;;1.87;;
8337;SDS011;4206;48.634;9.516;2023-03-16T10:00:26;3.97;;;2.33;;
8337;SDS011;4206;48.634;9.516;2023-03-16T10:03:01;2.40;;;2.20;;
8337;SDS011;4206;48.634;9.516;2023-03-16T10:05:46;4.37;;;2.40;;
8337;SDS011;4206;48.634;9.516;2023-03-16T10:08:22;4.37;;;2.17;;
8337;SDS011;4206;48.634;9.516;2023-03-16T10:16:08;3.23;;;2.10;;
8337;SDS011;4206;48.634;9.516;2023-03-16T10:18:43;2.80;;;2.13;;
8337;SDS011;4206;48.634;9.516;2023-03-16T10:21:14;2.50;;;2.10;;
8337;SDS011;4206;48.634;9.516;2023-03-16T10:23:44;4.20;;;2.30;;
8337;SDS011;4206;48.634;9.516;2023-03-16T10:26:16;4.27;;;2.27;;
8337;SDS011;4206;48.634;9.516;2023-03-16T10:28:48;2.60;;;1.97;;
8337;SDS011;4206;48.634;9.516;2023-03-16T10:31:15;4.37;;;2.13;;
8337;SDS011;4206;48.634;9.516;2023-03-16T10:33:45;2.37;;;1.73;;
8337;SDS011;4206;48.634;9.516;2023-03-16T10:38:51;2.20;;;1.90;;
8337;SDS011;4206;48.634;9.516;2023-03-16T10:41:22;3.77;;;2.70;;
8337;SDS011;4206;48.634;9.516;2023-03-16T10:43:54;2.53;;;1.70;;
8337;SDS011;4206;48.634;9.516;2023-03-16T10:46:24;4.80;;;2.50;;
8337;SDS011;4206;48.634;9.516;2023-03-16T10:48:55;2.70;;;2.50;;
8337;SDS011;4206;48.634;9.516;2023-03-16T10:51:30;3.83;;;2.73;;
8337;SDS011;4206;48.634;9.516;2023-03-16T10:54:06;3.90;;;2.40;;
8337;SDS011;4206;48.634;9.516;2023-03-16T10:56:39;7.07;;;2.30;;
8337;SDS011;4206;48.634;9.516;2023-03-16T10:59:14;3.50;;;2.23;;
8337;SDS011;4206;48.634;9.516;2023-03-16T11:01:53;2.73;;;1.87;;
8337;SDS011;4206;48.634;9.516;2023-03-16T11:04:20;4.53;;;2.50;;
8337;SDS011;4206;48.634;9.516;2023-03-16T11:06:48;2.03;;;1.80;;
8337;SDS011;4206;48.634;9.516;2023-03-16T11:09:21;3.30;;;2.30;;
8337;SDS011;4206;48.634;9.516;2023-03-16T11:11:57;3.60;;;2.30;;
8337;SDS011;4206;48.634;9.516;2023-03-16T11:14:27;4.07;;;1.87;;
8337;SDS011;4206;48.634;9.516;2023-03-16T11:19:29;3.20;;;2.00;;
8337;SDS011;4206;48.634;9.516;2023-03-16T11:21:59;3.00;;;2.40;;
8337;SDS011;4206;48.634;9.516;2023-03-16T11:30:15;3.73;;;2.37;;
8337;SDS011;4206;48.634;9.516;2023-03-16T11:32:50;3.60;;;2.33;;
8337;SDS011;4206;48.634;9.516;2023-03-16T11:38:31;6.90;;;2.80;;
8337;SDS011;4206;48.634;9.516;2023-03-16T11:41:03;6.37;;;2.67;;
8337;SDS011;4206;48.634;9.516;2023-03-16T11:46:18;3.37;;;2.60;;
8337;SDS011;4206;48.634;9.516;2023-03-16T11:52:10;3.03;;;2.73;;
8337;SDS011;4206;48.634;9.516;2023-03-16T11:57:44;2.70;;;2.50;;
8337;SDS011;4206;48.634;9.516;2023-03-16T12:08:53;4.03;;;2.23;;
8337;SDS011;4206;48.634;9.516;2023-03-16T12:16:49;2.83;;;2.30;;
8337;SDS011;4206;48.634;9.516;2023-03-16T12:22:20;3.17;;;2.87;;
8337;SDS011;4206;48.634;9.516;2023-03-16T12:24:53;4.07;;;2.77;;
8337;SDS011;4206;48.634;9.516;2023-03-16T12:27:22;3.90;;;2.57;;
8337;SDS011;4206;48.634;9.516;2023-03-16T12:35:32;7.93;;;3.10;;
8337;SDS011;4206;48.634;9.516;2023-03-16T12:46:02;2.93;;;2.67;;
8337;SDS011;4206;48.634;9.516;2023-03-16T12:48:36;4.20;;;3.03;;
8337;SDS011;4206;48.634;9.516;2023-03-16T12:51:08;6.33;;;3.10;;
8337;SDS011;4206;48.634;9.516;2023-03-16T12:53:39;3.60;;;3.30;;
8337;SDS011;4206;48.634;9.516;2023-03-16T12:56:06;3.07;;;2.87;;
8337;SDS011;4206;48.634;9.516;2023-03-16T12:58:35;4.50;;;3.20;;
8337;SDS011;4206;48.634;9.516;2023-03-16T13:01:09;3.50;;;3.20;;
8337;SDS011;4206;48.634;9.516;2023-03-16T13:03:38;2.67;;;2.47;;
8337;SDS011;4206;48.634;9.516;2023-03-16T13:06:14;6.37;;;3.10;;
8337;SDS011;4206;48.634;9.516;2023-03-16T13:08:46;3.60;;;2.80;;
8337;SDS011;4206;48.634;9.516;2023-03-16T13:11:17;3.67;;;3.37;;
8337;SDS011;4206;48.634;9.516;2023-03-16T13:13:49;3.73;;;3.33;;
8337;SDS011;4206;48.634;9.516;2023-03-16T13:21:45;5.17;;;3.40;;
8337;SDS011;4206;48.634;9.516;2023-03-16T13:24:21;6.00;;;3.20;;
8337;SDS011;4206;48.634;9.516;2023-03-16T13:26:59;4.23;;;3.47;;
8337;SDS011;4206;48.634;9.516;2023-03-16T13:29:30;4.60;;;3.60;;
8337;SDS011;4206;48.634;9.516;2023-03-16T13:32:02;4.60;;;3.00;;
8337;SDS011;4206;48.634;9.516;2023-03-16T13:34:36;12.20;;;6.33;;
8337;SDS011;4206;48.634;9.516;2023-03-16T13:37:11;4.77;;;3.20;;
8337;SDS011;4206;48.634;9.516;2023-03-16T13:39:40;4.30;;;3.30;;
8337;SDS011;4206;48.634;9.516;2023-03-16T13:44:38;4.23;;;3.60;;
8337;SDS011;4206;48.634;9.516;2023-03-16T13:47:06;4.23;;;3.83;;
8337;SDS011;4206;48.634;9.516;2023-03-16T13:49:43;5.33;;;3.60;;
8337;SDS011;4206;48.634;9.516;2023-03-16T13:52:15;3.83;;;3.47;;
8337;SDS011;4206;48.634;9.516;2023-03-16T13:55:01;5.00;;;3.43;;
8337;SDS011;4206;48.634;9.516;2023-03-16T13:57:34;5.00;;;3.70;;
8337;SDS011;4206;48.634;9.516;2023-03-16T14:00:06;7.53;;;3.57;;
8337;SDS011;4206;48.634;9.516;2023-03-16T14:02:46;3.40;;;3.10;;
8337;SDS011;4206;48.634;9.516;2023-03-16T14:05:19;3.80;;;3.37;;
8337;SDS011;4206;48.634;9.516;2023-03-16T14:07:55;5.17;;;3.90;;
8337;SDS011;4206;48.634;9.516;2023-03-16T14:10:23;3.60;;;3.23;;
8337;SDS011;4206;48.634;9.516;2023-03-16T14:12:56;4.03;;;3.70;;
8337;SDS011;4206;48.634;9.516;2023-03-16T14:15:31;4.60;;;3.93;;
8337;SDS011;4206;48.634;9.516;2023-03-16T14:18:09;7.60;;;3.20;;
8337;SDS011;4206;48.634;9.516;2023-03-16T14:20:41;3.67;;;3.37;;
8337;SDS011;4206;48.634;9.516;2023-03-16T14:25:53;3.80;;;3.50;;
8337;SDS011;4206;48.634;9.516;2023-03-16T14:28:25;3.23;;;2.93;;
8337;SDS011;4206;48.634;9.516;2023-03-16T14:31:02;3.30;;;2.60;;
8337;SDS011;4206;48.634;9.516;2023-03-16T14:33:32;3.13;;;2.83;;
8337;SDS011;4206;48.634;9.516;2023-03-16T14:36:06;5.90;;;3.33;;
8337;SDS011;4206;48.634;9.516;2023-03-16T14:38:48;5.03;;;2.40;;
8337;SDS011;4206;48.634;9.516;2023-03-16T14:41:21;4.00;;;3.30;;
8337;SDS011;4206;48.634;9.516;2023-03-16T14:43:55;5.23;;;2.80;;
8337;SDS011;4206;48.634;9.516;2023-03-16T14:46:26;2.60;;;2.40;;
8337;SDS011;4206;48.634;9.516;2023-03-16T14:49:00;3.20;;;2.40;;
8337;SDS011;4206;48.634;9.516;2023-03-16T14:51:34;3.00;;;2.50;;
8337;SDS011;4206;48.634;9.516;2023-03-16T14:54:08;2.43;;;1.93;;
8337;SDS011;4206;48.634;9.516;2023-03-16T14:56:38;2.43;;;2.23;;
8337;SDS011;4206;48.634;9.516;2023-03-16T14:59:08;2.30;;;2.10;;
8337;SDS011;4206;48.634;9.516;2023-03-16T15:01:35;3.37;;;2.50;;
8337;SDS011;4206;48.634;9.516;2023-03-16T15:04:03;3.00;;;1.77;;
8337;SDS011;4206;48.634;9.516;2023-03-16T15:06:31;2.77;;;2.20;;
8337;SDS011;4206;48.634;9.516;2023-03-16T15:08:59;2.23;;;1.90;;
8337;SDS011;4206;48.634;9.516;2023-03-16T15:11:27;3.03;;;2.10;;
8337;SDS011;4206;48.634;9.516;2023-03-16T15:13:54;2.10;;;1.90;;
8337;SDS011;4206;48.634;9.516;2023-03-16T15:16:36;2.47;;;1.67;;
8337;SDS011;4206;48.634;9.516;2023-03-16T15:19:03;5.47;;;2.20;;
8337;SDS011;4206;48.634;9.516;2023-03-16T15:21:30;2.53;;;1.47;;
8337;SDS011;4206;48.634;9.516;2023-03-16T15:23:57;2.40;;;1.50;;
8337;SDS011;4206;48.634;9.516;2023-03-16T15:26:24;1.90;;;1.30;;
8337;SDS011;4206;48.634;9.516;2023-03-16T15:28:54;2.23;;;1.90;;
8337;SDS011;4206;48.634;9.516;2023-03-16T15:31:22;2.40;;;1.60;;
8337;SDS011;4206;48.634;9.516;2023-03-16T15:33:49;2.60;;;1.67;;
8337;SDS011;4206;48.634;9.516;2023-03-16T15:36:18;1.30;;;1.20;;
8337;SDS011;4206;48.634;9.516;2023-03-16T15:38:48;3.30;;;1.80;;
8337;SDS011;4206;48.634;9.516;2023-03-16T15:41:16;3.43;;;1.50;;
8337;SDS011;4206;48.634;9.516;2023-03-16T15:43:44;2.60;;;1.50;;
8337;SDS011;4206;48.634;9.516;2023-03-16T15:46:11;2.80;;;2.13;;
8337;SDS011;4206;48.634;9.516;2023-03-16T15:48:40;2.90;;;1.70;;
8337;SDS011;4206;48.634;9.516;2023-03-16T15:51:10;1.63;;;1.40;;
8337;SDS011;4206;48.634;9.516;2023-03-16T15:53:48;2.50;;;1.50;;
8337;SDS011;4206;48.634;9.516;2023-03-16T15:56:20;7.23;;;3.50;;
8337;SDS011;4206;48.634;9.516;2023-03-16T15:58:54;3.50;;;1.60;;
8337;SDS011;4206;48.634;9.516;2023-03-16T16:01:27;2.17;;;1.47;;
8337;SDS011;4206;48.634;9.516;2023-03-16T16:03:57;3.10;;;1.50;;
8337;SDS011;4206;48.634;9.516;2023-03-16T16:06:24;2.00;;;1.20;;
8337;SDS011;4206;48.634;9.516;2023-03-16T16:08:53;1.70;;;1.60;;
8337;SDS011;4206;48.634;9.516;2023-03-16T16:11:22;1.90;;;1.50;;
8337;SDS011;4206;48.634;9.516;2023-03-16T16:13:52;1.63;;;1.53;;
8337;SDS011;4206;48.634;9.516;2023-03-16T16:16:20;2.70;;;1.70;;
8337;SDS011;4206;48.634;9.516;2023-03-16T16:18:47;3.20;;;1.17;;
8337;SDS011;4206;48.634;9.516;2023-03-16T16:21:16;1.30;;;1.20;;
8337;SDS011;4206;48.634;9.516;2023-03-16T16:23:45;1.67;;;1.40;;
8337;SDS011;4206;48.634;9.516;2023-03-16T16:26:19;4.20;;;1.40;;
8337;SDS011;4206;48.634;9.516;2023-03-16T16:28:56;4.30;;;1.40;;
8337;SDS011;4206;48.634;9.516;2023-03-16T16:31:24;4.13;;;1.70;;
8337;SDS011;4206;48.634;9.516;2023-03-16T16:33:54;1.77;;;1.30;;
8337;SDS011;4206;48.634;9.516;2023-03-16T16:36:21;1.90;;;1.37;;
8337;SDS011;4206;48.634;9.516;2023-03-16T16:38:50;5.30;;;1.60;;
8337;SDS011;4206;48.634;9.516;2023-03-16T16:43:53;3.50;;;2.40;;
8337;SDS011;4206;48.634;9.516;2023-03-16T16:46:22;4.10;;;2.13;;
8337;SDS011;4206;48.634;9.516;2023-03-16T16:48:51;4.93;;;1.83;;
8337;SDS011;4206;48.634;9.516;2023-03-16T16:51:24;3.00;;;1.60;;
8337;SDS011;4206;48.634;9.516;2023-03-16T16:53:54;6.87;;;2.97;;
8337;SDS011;4206;48.634;9.516;2023-03-16T16:56:25;2.70;;;1.63;;
8337;SDS011;4206;48.634;9.516;2023-03-16T16:58:53;3.60;;;1.93;;
8337;SDS011;4206;48.634;9.516;2023-03-16T17:01:25;2.20;;;1.40;;
8337;SDS011;4206;48.634;9.516;2023-03-16T17:03:55;4.00;;;2.63;;
8337;SDS011;4206;48.634;9.516;2023-03-16T17:06:22;3.40;;;1.80;;
8337;SDS011;4206;48.634;9.516;2023-03-16T17:08:49;2.73;;;1.30;;
8337;SDS011;4206;48.634;9.516;2023-03-16T17:11:20;2.70;;;2.20;;
8337;SDS011;4206;48.634;9.516;2023-03-16T17:13:53;1.97;;;1.40;;
8337;SDS011;4206;48.634;9.516;2023-03-16T17:16:20;4.83;;;1.90;;
8337;SDS011;4206;48.634;9.516;2023-03-16T17:18:51;2.40;;;1.73;;
8337;SDS011;4206;48.634;9.516;2023-03-16T17:21:19;4.00;;;2.43;;
8337;SDS011;4206;48.634;9.516;2023-03-16T17:23:49;3.30;;;1.47;;
8337;SDS011;4206;48.634;9.516;2023-03-16T17:26:20;3.33;;;1.47;;
8337;SDS011;4206;48.634;9.516;2023-03-16T17:31:25;7.97;;;2.40;;
8337;SDS011;4206;48.634;9.516;2023-03-16T17:33:56;9.23;;;2.60;;
8337;SDS011;4206;48.634;9.516;2023-03-16T17:36:23;11.07;;;3.10;;
8337;SDS011;4206;48.634;9.516;2023-03-16T17:38:50;6.80;;;2.50;;
8337;SDS011;4206;48.634;9.516;2023-03-16T17:41:22;7.57;;;2.17;;
8337;SDS011;4206;48.634;9.516;2023-03-16T17:43:52;2.90;;;2.17;;
8337;SDS011;4206;48.634;9.516;2023-03-16T17:46:23;2.80;;;1.63;;
8337;SDS011;4206;48.634;9.516;2023-03-16T17:48:52;6.70;;;2.20;;
8337;SDS011;4206;48.634;9.516;2023-03-16T17:51:21;9.17;;;3.67;;
8337;SDS011;4206;48.634;9.516;2023-03-16T17:53:50;9.77;;;2.83;;
8337;SDS011;4206;48.634;9.516;2023-03-16T17:56:20;5.43;;;2.40;;